x

Mount Louis (45138) Wave Buoy

1:00am - Sat 30th May 2015 All times are UTC.

  • Sig Wave height 1.0ft
  • Peak Period 3s
  • Wind
    11mph, 13mph gusts
  • Sea Temp 43°f
  • Air Temp 44°f
  • Sea Pressure 1019.8mb

More Historic Weather Station data

Upgrade to MSW Pro to gain access to the past 30 days of data for over 8000 Wavebouys and Weather Stations around the globe.

Join Pro

Comparision Forecast

View Surf forecast
   
Sat 05/30 1:00am 1ft 3s 11 13 mph 1019.8mb 43f 44f
12:00am 1ft 3s 11
mph
1021.2mb 42f 44f
Fri 05/29 11:00pm 1ft 3s 13 16 mph 1022.1mb 42f 44f
10:00pm 1ft 3s 13
mph
1023.4mb 43f 45f
9:00pm 1ft 3s 11 13 mph 1024.3mb 43f 45f
8:00pm 1ft 6s 9 11 mph 1025.4mb 43f 44f
7:00pm 1ft 3s 9 11 mph 1026.1mb 43f 44f
6:00pm 1ft 3s 9 11 mph 1026.8mb 43f 44f
5:00pm 1ft 3s 9 11 mph 1027.8mb 42f 43f
4:00pm 1ft 3s 9 11 mph 1028.1mb 42f 43f
3:00pm 1ft 3s 11 13 mph 1028.3mb 42f 43f
2:00pm 1ft 3s 11 13 mph 1028.8mb 42f 43f
1:00pm 1.3ft 3s 4 7 mph 1029.2mb 42f 43f
12:00pm 1.3ft 3s 9
mph
1029.5mb 41f 44f
11:00am 1.3ft 3s 13
mph
1028.7mb 41f 43f
10:00am 1.3ft 3s 13 16 mph 1028.2mb 41f 44f
9:00am 1.3ft 3s 11 13 mph 1027mb 41f 44f
8:00am 1.3ft 4s 11 13 mph 1025.9mb 41f 44f
7:00am 1ft 3s 11 13 mph 1025.1mb 41f 45f
6:00am 1.3ft 3s 11 13 mph 1023.9mb 42f 45f
5:00am 1.3ft 5s 9 11 mph 1023.3mb 41f 45f
4:00am 1.3ft 3s 11 13 mph 1022.4mb 41f 47f
3:00am 1.6ft 3s 13
mph
1021.5mb 42f 47f
2:00am 1.3ft 5s 16
mph
1020.4mb 42f 49f
1:00am 1.3ft 3s 11 13 mph 1019.5mb 42f 47f
12:00am 1.3ft 3s 9 11 mph 1018.3mb 42f 47f
Thu 05/28 11:00pm 1ft 2s 13
mph
1017.2mb 42f 49f
10:00pm 1ft 7s 11 13 mph 1016.2mb 42f 51f
9:00pm 1.3ft 4s 11
mph
1015mb 42f 49f
8:00pm 1.6ft 4s 13
mph
1014.3mb 42f 48f
7:00pm 1.6ft 4s 13 16 mph 1013.7mb 42f 47f
6:00pm 2ft 4s 13 16 mph 1013.2mb 42f 46f
5:00pm 2ft 4s 13 16 mph 1012.6mb 42f 46f
4:00pm 2.5ft 5s 11 13 mph 1011.7mb 41f 46f
3:00pm 3ft 5s 13
mph
1010.9mb 41f 45f
2:00pm 3ft 4s 16 20 mph 1010.3mb 41f 47f
1:00pm 2.5ft 4s 18 20 mph 1009.4mb 41f 48f
12:00pm 1.3ft 4s 13 16 mph 1009.1mb 41f 47f
11:00am 1.3ft 4s 13
mph
1008.3mb 41f 47f
10:00am 1.3ft 5s 7 9 mph 1007.9mb 41f 47f
9:00am 1.6ft 6s 9 11 mph 1007.6mb 41f 43f
8:00am 1.6ft 6s 7
mph
1007.4mb 41f 43f
7:00am 1.6ft 6s 7 9 mph 1007.9mb 41f 43f
6:00am 2ft 5s 7 9 mph 1008mb 41f 42f
5:00am 2ft 5s 7 9 mph 1008.3mb 41f 42f
4:00am 2ft 5s 9 11 mph 1008.6mb 41f 43f
3:00am 2ft 5s 7
mph
1008.9mb 41f 43f
2:00am 2ft 5s 7 9 mph 1009mb 42f 44f
1:00am 2.5ft 5s 4
mph
1009.4mb 41f 44f
12:00am 2.5ft 5s 4 7 mph 1009.1mb 41f 44f
Wed 05/27 11:00pm 2.5ft 4s 2 4 mph 1009.8mb 41f 44f
10:00pm 2.5ft 4s 16 18 mph 1008.2mb 41f 43f
9:00pm 1.3ft 3s 18 20 mph 1009.9mb 41f 44f
8:00pm 1ft 2s 13 16 mph 1011.8mb 42f 43f
7:00pm 0.7ft 6s 11 13 mph 1013.5mb 42f 44f
6:00pm 0.7ft 3s 11 13 mph 1014.8mb 42f 44f
5:00pm 0.7ft 4s 4 7 mph 1016.2mb 44f 46f
4:00pm 0.7ft 3s 2 4 mph 1016.9mb 43f 47f
3:00pm 0.7ft 3s 4 7 mph 1017.3mb 42f 45f
2:00pm 0.7ft 3s 4
mph
1017.8mb 41f 44f
1:00pm 0.7ft 3s 4 7 mph 1018.1mb 40f 44f
12:00pm 1ft 3s 4
mph
1017.8mb 40f 43f
11:00am 1ft 3s 11 13 mph 1017.7mb 40f 44f
10:00am 1.3ft 3s 13
mph
1017.5mb 40f 44f
9:00am 1.3ft 3s 13 16 mph 1016.8mb 40f 43f
8:00am 1ft  -  13 16 mph 1016mb 40f 43f
7:00am 1ft 3s 13 16 mph 1015.4mb 40f 42f
6:00am 1ft 3s 9 11 mph 1014.9mb 40f 42f
5:00am 1ft 4s 7 9 mph 1014.4mb 40f 42f
4:00am 0.7ft 3s 9
mph
1013.5mb 40f 41f
3:00am 0.7ft 3s 7
mph
1013mb 40f 41f
2:00am 0.7ft 3s 4 7 mph 1012.5mb 40f 41f
1:00am 1ft 3s 2 4 mph 1012.4mb 40f 41f
12:00am 1ft 3s 4
mph
1012mb 40f 41f
Tue 05/26 11:00pm 1ft 3s  -  2 mph 1011.5mb 40f 41f
10:00pm 1.3ft 3s 7 9 mph 1010.8mb 40f 41f
9:00pm 1.3ft 2s 11 13 mph 1010.2mb 40f 42f
8:00pm 1ft 5s 13 16 mph 1010.3mb 40f 41f
7:00pm 1.3ft 5s 9 11 mph 1010.2mb 40f 42f
6:00pm 1.3ft 3s 13
mph
1010.5mb 40f 43f
5:00pm 1.3ft 5s 9 11 mph 1011.4mb 40f 42f
4:00pm 1.3ft 5s 11
mph
1011.9mb 40f 42f
3:00pm 1.3ft 5s 9 11 mph 1013mb 40f 42f
2:00pm 1.3ft 5s 9
mph
1013.6mb 40f 42f
1:00pm 1.3ft 5s 9
mph
1014.1mb 40f 42f
12:00pm 1.3ft 5s 7 9 mph 1014.2mb 40f 43f
11:00am 1.3ft 5s 9
mph
1014.3mb 40f 41f
10:00am 1.6ft 5s 4 7 mph 1014.6mb 40f 42f
9:00am 1.6ft 5s 4 7 mph 1014.4mb 40f 44f
8:00am 1.6ft 5s 7 9 mph 1014.2mb 40f 44f
7:00am 2ft 6s 7 9 mph 1014.6mb 40f 43f
6:00am 2ft 5s 7
mph
1014.7mb 40f 45f
5:00am 2.5ft 6s 9
mph
1014.7mb 40f 46f
4:00am 2ft 5s 7
mph
1014.5mb 40f 45f
3:00am 2.5ft 5s 13
mph
1014.2mb 40f 45f